createdAt,value
2018-05-16T00:01:20.736Z,11.17
2018-05-16T00:03:48.312Z,11.47
2018-05-16T00:06:15.888Z,11.03
2018-05-16T00:08:43.620Z,11.77
2018-05-16T00:11:11.173Z,9.70
2018-05-16T00:13:38.913Z,4.83
2018-05-16T00:16:06.457Z,4.50
2018-05-16T00:18:34.005Z,3.30
2018-05-16T00:21:01.692Z,2.63
2018-05-16T00:23:29.242Z,2.90
2018-05-16T00:25:56.800Z,3.07
2018-05-16T00:28:24.385Z,2.77
2018-05-16T00:30:51.931Z,2.43
2018-05-16T00:33:19.480Z,2.53
2018-05-16T00:35:47.053Z,2.10
2018-05-16T00:38:14.597Z,2.23
2018-05-16T00:40:43.016Z,2.07
2018-05-16T00:43:10.642Z,2.57
2018-05-16T00:45:38.212Z,2.30
2018-05-16T00:48:05.749Z,2.20
2018-05-16T00:50:33.342Z,1.97
2018-05-16T00:53:00.880Z,2.00
2018-05-16T00:55:28.419Z,2.13
2018-05-16T00:57:55.999Z,2.10
2018-05-16T01:00:23.548Z,2.17
2018-05-16T01:02:51.086Z,2.00
2018-05-16T01:05:18.712Z,2.70
2018-05-16T01:07:46.255Z,2.17
2018-05-16T01:10:13.793Z,2.50
2018-05-16T01:12:41.515Z,2.27
2018-05-16T01:15:09.054Z,2.57
2018-05-16T01:17:36.603Z,2.87
2018-05-16T01:20:04.499Z,2.50
2018-05-16T01:22:32.064Z,2.17
2018-05-16T01:24:59.609Z,2.20
2018-05-16T01:27:27.185Z,2.50
2018-05-16T01:29:54.722Z,2.33
2018-05-16T01:32:22.255Z,2.23
2018-05-16T01:34:49.931Z,2.27
2018-05-16T01:37:17.481Z,2.40
2018-05-16T01:39:45.015Z,2.33
2018-05-16T01:42:12.586Z,2.37
2018-05-16T01:44:40.119Z,2.70
2018-05-16T01:47:07.657Z,2.37
2018-05-16T01:49:35.219Z,2.63
2018-05-16T01:52:02.763Z,3.80
2018-05-16T01:54:30.316Z,5.27
2018-05-16T01:56:58.018Z,6.00
2018-05-16T01:59:25.564Z,5.93
2018-05-16T02:01:53.104Z,5.60
2018-05-16T02:04:20.676Z,5.93
2018-05-16T02:06:48.221Z,5.63
2018-05-16T02:09:15.776Z,5.00
2018-05-16T02:11:43.345Z,4.67
2018-05-16T02:14:10.879Z,4.03
2018-05-16T02:16:38.511Z,2.73
2018-05-16T02:19:06.019Z,3.87
2018-05-16T02:21:33.556Z,2.87
2018-05-16T02:24:01.109Z,3.77
2018-05-16T02:26:28.686Z,3.20
2018-05-16T02:28:56.235Z,2.50
2018-05-16T02:31:23.772Z,2.20
2018-05-16T02:33:51.493Z,2.40
2018-05-16T02:36:19.031Z,2.00
2018-05-16T02:38:46.576Z,1.80
2018-05-16T02:41:14.125Z,2.20
2018-05-16T02:43:41.656Z,1.70
2018-05-16T02:46:09.348Z,1.47
2018-05-16T02:48:36.877Z,1.77
2018-05-16T02:51:04.407Z,2.17
2018-05-16T02:53:32.198Z,1.90
2018-05-16T02:55:59.747Z,1.83
2018-05-16T02:58:27.282Z,1.83
2018-05-16T03:00:54.955Z,1.70
2018-05-16T03:03:22.505Z,2.03
2018-05-16T03:05:50.049Z,2.37
2018-05-16T03:08:17.620Z,2.03
2018-05-16T03:10:45.160Z,2.23
2018-05-16T03:13:12.693Z,2.20
2018-05-16T03:15:40.408Z,2.20
2018-05-16T03:18:07.935Z,2.40
2018-05-16T03:20:35.475Z,2.60
2018-05-16T03:23:03.192Z,2.10
2018-05-16T03:25:30.731Z,2.40
2018-05-16T03:27:58.263Z,2.30
2018-05-16T03:30:25.843Z,2.40
2018-05-16T03:32:53.380Z,2.00
2018-05-16T03:35:20.921Z,2.20
2018-05-16T03:37:48.587Z,2.10
2018-05-16T03:40:16.139Z,2.10
2018-05-16T03:42:43.672Z,2.67
2018-05-16T03:45:11.255Z,1.97
2018-05-16T03:47:38.797Z,1.63
2018-05-16T03:50:06.338Z,1.73
2018-05-16T03:52:34.237Z,1.97
2018-05-16T03:55:01.781Z,1.83
2018-05-16T03:57:40.986Z,1.87
2018-05-16T04:00:20.363Z,1.80
2018-05-16T04:02:59.704Z,1.60
2018-05-16T04:05:27.258Z,1.50
2018-05-16T04:07:54.813Z,1.30
2018-05-16T04:10:22.392Z,1.37
2018-05-16T04:12:49.937Z,1.40
2018-05-16T04:15:17.480Z,1.33
2018-05-16T04:17:45.203Z,1.50
2018-05-16T04:20:12.757Z,1.27
2018-05-16T04:22:40.314Z,1.10
2018-05-16T04:25:07.880Z,1.03
2018-05-16T04:27:35.416Z,1.00
2018-05-16T04:30:02.984Z,1.10
2018-05-16T04:32:30.566Z,1.10
2018-05-16T04:34:58.115Z,1.10
2018-05-16T04:37:25.663Z,0.90
2018-05-16T04:39:53.236Z,0.93
2018-05-16T04:42:20.768Z,1.07
2018-05-16T04:44:48.326Z,1.00
2018-05-16T04:47:16.094Z,0.80
2018-05-16T04:49:43.643Z,0.97
2018-05-16T04:52:11.186Z,1.03
2018-05-16T04:54:38.747Z,1.03
2018-05-16T04:57:06.290Z,0.87
2018-05-16T04:59:33.834Z,1.00
2018-05-16T05:02:01.587Z,0.90
2018-05-16T05:04:29.121Z,1.00
2018-05-16T05:06:56.663Z,0.90
2018-05-16T05:09:24.508Z,0.80
2018-05-16T05:11:52.049Z,0.80
2018-05-16T05:14:19.601Z,0.97
2018-05-16T05:16:47.165Z,0.97
2018-05-16T05:19:14.706Z,0.90
2018-05-16T05:21:42.249Z,0.80
2018-05-16T05:24:10.159Z,1.20
2018-05-16T05:26:37.709Z,0.73
2018-05-16T05:29:05.240Z,0.90
2018-05-16T05:31:32.829Z,0.60
2018-05-16T05:34:00.360Z,1.00
2018-05-16T05:36:27.894Z,0.90
2018-05-16T05:38:55.750Z,0.80
2018-05-16T05:41:23.299Z,0.60
2018-05-16T05:43:50.872Z,0.70
2018-05-16T05:46:18.472Z,1.23
2018-05-16T05:48:46.016Z,1.00
2018-05-16T05:51:13.570Z,0.80
2018-05-16T05:53:41.154Z,0.97
2018-05-16T05:56:08.703Z,1.17
2018-05-16T05:58:36.243Z,1.03
2018-05-16T06:01:03.825Z,1.17
2018-05-16T06:03:31.385Z,1.03
2018-05-16T06:05:58.928Z,1.10
2018-05-16T06:08:26.662Z,1.10
2018-05-16T06:10:54.226Z,1.30
2018-05-16T06:13:21.764Z,1.10
2018-05-16T06:15:49.332Z,1.23
2018-05-16T06:18:16.876Z,1.40
2018-05-16T06:20:44.563Z,1.77
2018-05-16T06:23:12.137Z,1.40
2018-05-16T06:25:39.688Z,1.50
2018-05-16T06:28:07.231Z,2.00
2018-05-16T06:30:34.806Z,1.70
2018-05-16T06:33:02.344Z,2.60
2018-05-16T06:35:29.886Z,1.60
2018-05-16T06:37:57.596Z,3.17
2018-05-16T06:40:25.152Z,1.60
2018-05-16T06:42:52.693Z,1.23
2018-05-16T06:45:20.583Z,1.53
2018-05-16T06:47:48.127Z,1.50
2018-05-16T06:50:15.690Z,1.40
2018-05-16T06:52:43.277Z,1.40
2018-05-16T06:55:10.831Z,1.60
2018-05-16T06:57:38.365Z,1.30
2018-05-16T07:00:05.936Z,1.70
2018-05-16T07:02:33.470Z,1.57
2018-05-16T07:05:00.995Z,1.70
2018-05-16T07:07:28.712Z,1.60
2018-05-16T07:09:56.260Z,2.07
2018-05-16T07:12:23.802Z,1.40
2018-05-16T07:14:51.379Z,1.50
2018-05-16T07:17:18.921Z,1.47
2018-05-16T07:19:46.476Z,1.70
2018-05-16T07:22:14.065Z,1.70
2018-05-16T07:24:41.625Z,2.00
2018-05-16T07:27:09.158Z,1.67
2018-05-16T07:29:36.726Z,1.43
2018-05-16T07:32:04.255Z,1.93
2018-05-16T07:34:31.801Z,1.90
2018-05-16T07:36:59.800Z,5.67
2018-05-16T07:39:27.350Z,1.87
2018-05-16T07:41:54.893Z,3.50
2018-05-16T07:44:22.467Z,1.93
2018-05-16T07:46:50.005Z,2.20
2018-05-16T07:49:17.547Z,1.77
2018-05-16T07:51:45.211Z,2.10
2018-05-16T07:54:12.764Z,1.50
2018-05-16T07:56:40.310Z,1.90
2018-05-16T07:59:08.021Z,1.63
2018-05-16T08:01:35.576Z,2.00
2018-05-16T08:04:03.418Z,2.00
2018-05-16T08:06:31.015Z,2.20
2018-05-16T08:08:58.551Z,2.07
2018-05-16T08:11:26.090Z,1.80
2018-05-16T08:13:53.714Z,1.93
2018-05-16T08:16:21.254Z,1.87
2018-05-16T08:18:48.800Z,1.77
2018-05-16T08:21:16.355Z,2.40
2018-05-16T08:23:43.896Z,2.10
2018-05-16T08:26:11.437Z,1.70
2018-05-16T08:28:39.003Z,2.00
2018-05-16T08:31:06.551Z,2.20
2018-05-16T08:33:34.098Z,2.10
2018-05-16T08:36:01.677Z,2.30
2018-05-16T08:38:29.221Z,2.33
2018-05-16T08:40:56.765Z,2.10
2018-05-16T08:43:24.332Z,2.10
2018-05-16T08:45:51.868Z,2.30
2018-05-16T08:48:19.423Z,2.20
2018-05-16T08:50:47.024Z,2.47
2018-05-16T08:53:14.579Z,2.10
2018-05-16T08:55:42.119Z,2.30
2018-05-16T08:58:09.857Z,2.50
2018-05-16T09:00:37.423Z,2.33
2018-05-16T09:03:05.019Z,2.17
2018-05-16T09:05:32.769Z,2.27
2018-05-16T09:08:00.321Z,2.60
2018-05-16T09:10:27.879Z,2.37
2018-05-16T09:12:55.480Z,2.20
2018-05-16T09:15:23.017Z,2.37
2018-05-16T09:17:50.561Z,2.07
2018-05-16T09:20:18.260Z,2.70
2018-05-16T09:22:45.844Z,2.50
2018-05-16T09:25:13.466Z,2.27
2018-05-16T09:27:40.995Z,2.50
2018-05-16T09:30:08.540Z,2.57
2018-05-16T09:32:36.089Z,2.37
2018-05-16T09:35:03.656Z,2.30
2018-05-16T09:37:31.193Z,2.30
2018-05-16T09:39:58.758Z,2.47
2018-05-16T09:42:26.301Z,1.93
2018-05-16T09:44:53.842Z,2.17
2018-05-16T09:47:21.440Z,2.13
2018-05-16T09:49:48.998Z,2.50
2018-05-16T09:52:16.558Z,2.40
2018-05-16T09:54:44.358Z,2.10
2018-05-16T09:57:11.947Z,2.50
2018-05-16T09:59:40.105Z,2.20
2018-05-16T10:02:07.692Z,2.43
2018-05-16T10:04:35.241Z,1.97
2018-05-16T10:07:02.793Z,2.10
2018-05-16T10:09:30.376Z,2.17
2018-05-16T10:11:57.927Z,2.10
2018-05-16T10:14:25.473Z,1.87
2018-05-16T10:16:53.093Z,1.93
2018-05-16T10:19:20.635Z,2.33
2018-05-16T10:21:48.188Z,1.73
2018-05-16T10:24:16.087Z,1.40
2018-05-16T10:26:43.619Z,1.70
2018-05-16T10:29:11.173Z,1.90
2018-05-16T10:31:38.744Z,1.30
2018-05-16T10:34:06.285Z,1.37
2018-05-16T10:36:33.833Z,1.50
2018-05-16T10:39:01.409Z,2.27
2018-05-16T10:41:28.991Z,1.43
2018-05-16T10:43:56.538Z,1.60
2018-05-16T10:46:24.112Z,1.73
2018-05-16T10:48:51.653Z,1.60
2018-05-16T10:51:19.194Z,1.20
2018-05-16T10:53:46.766Z,1.57
2018-05-16T10:56:14.332Z,1.57
2018-05-16T10:58:41.887Z,1.53
2018-05-16T11:01:09.465Z,1.63
2018-05-16T11:03:37.003Z,1.30
2018-05-16T11:06:04.574Z,1.20
2018-05-16T11:08:32.311Z,1.20
2018-05-16T11:10:59.851Z,1.83
2018-05-16T11:13:27.397Z,1.20
2018-05-16T11:15:54.965Z,1.67
2018-05-16T11:18:22.511Z,1.77
2018-05-16T11:20:50.044Z,1.17
2018-05-16T11:23:17.612Z,1.40
2018-05-16T11:25:45.165Z,1.20
2018-05-16T11:28:12.697Z,2.00
2018-05-16T11:30:40.769Z,1.50
2018-05-16T11:33:08.304Z,1.40
2018-05-16T11:35:35.856Z,1.40
2018-05-16T11:38:03.880Z,1.50
2018-05-16T11:40:31.424Z,1.67
2018-05-16T11:42:59.123Z,1.50
2018-05-16T11:45:26.692Z,1.33
2018-05-16T11:47:54.268Z,1.43
2018-05-16T11:50:21.807Z,1.50
2018-05-16T11:52:49.374Z,1.23
2018-05-16T11:55:16.915Z,1.37
2018-05-16T11:57:44.508Z,1.63
2018-05-16T12:00:12.233Z,1.67
2018-05-16T12:02:39.765Z,1.70
2018-05-16T12:05:07.308Z,1.90
2018-05-16T12:07:35.213Z,1.73
2018-05-16T12:10:02.799Z,1.50
2018-05-16T12:12:30.336Z,1.50
2018-05-16T12:14:58.090Z,1.20
2018-05-16T12:17:25.622Z,1.50
2018-05-16T12:19:53.162Z,1.50
2018-05-16T12:22:20.896Z,1.37
2018-05-16T12:24:48.444Z,2.07
2018-05-16T12:27:15.983Z,1.50
2018-05-16T12:29:43.550Z,1.60
2018-05-16T12:32:11.093Z,1.73
2018-05-16T12:34:38.652Z,1.50
2018-05-16T12:37:06.216Z,1.50
2018-05-16T12:39:33.768Z,1.30
2018-05-16T12:42:01.307Z,1.73
2018-05-16T12:44:29.053Z,1.50
2018-05-16T12:46:56.605Z,1.37
2018-05-16T12:49:25.007Z,1.33
2018-05-16T12:51:52.657Z,1.20
2018-05-16T12:54:20.239Z,1.37
2018-05-16T12:56:47.788Z,1.20
2018-05-16T12:59:15.356Z,1.57
2018-05-16T13:01:42.911Z,1.53
2018-05-16T13:04:10.460Z,0.90
2018-05-16T13:06:38.065Z,1.57
2018-05-16T13:09:06.481Z,1.30
2018-05-16T13:11:34.054Z,1.43
2018-05-16T13:14:01.778Z,1.60
2018-05-16T13:16:29.329Z,1.17
2018-05-16T13:18:56.885Z,1.10
2018-05-16T13:21:24.557Z,1.47
2018-05-16T13:23:52.050Z,1.20
2018-05-16T13:26:19.593Z,1.00
2018-05-16T13:28:47.320Z,0.97
2018-05-16T13:31:14.869Z,1.50
2018-05-16T13:33:42.417Z,1.17
2018-05-16T13:36:10.734Z,1.10
2018-05-16T13:38:38.275Z,1.47
2018-05-16T13:41:05.831Z,1.30
2018-05-16T13:43:33.714Z,1.30
2018-05-16T13:46:01.262Z,1.67
2018-05-16T13:48:28.829Z,1.07
2018-05-16T13:50:56.407Z,1.37
2018-05-16T13:53:23.990Z,1.23
2018-05-16T13:55:51.558Z,1.33
2018-05-16T13:58:19.160Z,1.20
2018-05-16T14:00:46.746Z,1.30
2018-05-16T14:03:14.288Z,1.30
2018-05-16T14:05:42.204Z,1.43
2018-05-16T14:08:09.742Z,1.50
2018-05-16T14:10:37.275Z,1.50
2018-05-16T14:13:04.850Z,1.83
2018-05-16T14:15:32.394Z,1.50
2018-05-16T14:17:59.932Z,1.63
2018-05-16T14:20:27.660Z,1.60
2018-05-16T14:22:55.212Z,1.50
2018-05-16T14:25:22.779Z,1.63
2018-05-16T14:27:50.561Z,1.63
2018-05-16T14:30:18.095Z,1.23
2018-05-16T14:32:45.643Z,1.20
2018-05-16T14:35:13.217Z,1.37
2018-05-16T14:37:40.756Z,1.40
2018-05-16T14:40:08.321Z,1.33
2018-05-16T14:42:35.903Z,1.50
2018-05-16T14:45:03.477Z,1.30
2018-05-16T14:47:31.198Z,1.40
2018-05-16T14:49:58.759Z,1.63
2018-05-16T14:52:26.330Z,1.40
2018-05-16T14:54:54.007Z,1.40
2018-05-16T14:57:21.569Z,1.30
2018-05-16T14:59:49.136Z,1.37
2018-05-16T15:02:17.023Z,1.27
2018-05-16T15:04:44.575Z,1.63
2018-05-16T15:07:12.126Z,1.37
2018-05-16T15:09:39.706Z,1.23
2018-05-16T15:12:07.269Z,1.23
2018-05-16T15:14:34.825Z,1.47
2018-05-16T15:17:02.554Z,1.53
2018-05-16T15:19:30.097Z,1.43
2018-05-16T15:21:57.651Z,1.10
2018-05-16T15:24:25.233Z,1.13
2018-05-16T15:26:52.780Z,1.30
2018-05-16T15:29:20.344Z,1.40
2018-05-16T15:31:48.234Z,1.00
2018-05-16T15:34:15.809Z,1.27
2018-05-16T15:36:43.348Z,1.17
2018-05-16T15:39:11.083Z,1.20
2018-05-16T15:41:38.638Z,0.77
2018-05-16T15:44:06.182Z,1.43
2018-05-16T15:46:33.791Z,1.33
2018-05-16T15:49:01.344Z,1.00
2018-05-16T15:51:28.913Z,1.07
2018-05-16T15:53:56.660Z,1.07
2018-05-16T15:56:24.196Z,1.20
2018-05-16T15:58:51.765Z,1.30
2018-05-16T16:01:19.500Z,1.60
2018-05-16T16:03:47.056Z,1.63
2018-05-16T16:06:14.605Z,1.23
2018-05-16T16:08:42.195Z,1.03
2018-05-16T16:11:09.754Z,1.27
2018-05-16T16:13:37.304Z,1.27
2018-05-16T16:16:04.980Z,1.03
2018-05-16T16:18:32.523Z,1.20
2018-05-16T16:21:00.059Z,1.03
2018-05-16T16:23:27.641Z,1.17
2018-05-16T16:25:55.222Z,1.27
2018-05-16T16:28:22.772Z,1.10
2018-05-16T16:30:50.449Z,1.13
2018-05-16T16:33:17.997Z,1.20
2018-05-16T16:35:45.588Z,1.30
2018-05-16T16:38:13.169Z,1.37
2018-05-16T16:40:40.717Z,1.40
2018-05-16T16:43:08.279Z,1.30
2018-05-16T16:45:36.000Z,1.00
2018-05-16T16:48:03.552Z,1.10
2018-05-16T16:50:31.111Z,1.20
2018-05-16T16:52:58.854Z,1.43
2018-05-16T16:55:26.411Z,1.23
2018-05-16T16:57:53.967Z,1.13
2018-05-16T17:00:21.533Z,1.30
2018-05-16T17:02:49.094Z,1.30
2018-05-16T17:05:16.637Z,1.40
2018-05-16T17:07:44.377Z,1.10
2018-05-16T17:10:11.936Z,1.63
2018-05-16T17:12:39.523Z,1.80
2018-05-16T17:15:07.083Z,1.60
2018-05-16T17:17:34.625Z,1.40
2018-05-16T17:20:02.197Z,1.40
2018-05-16T17:22:29.876Z,1.40
2018-05-16T17:24:57.409Z,1.40
2018-05-16T17:27:24.947Z,1.67
2018-05-16T17:29:52.636Z,1.30
2018-05-16T17:32:20.186Z,1.00
2018-05-16T17:34:47.735Z,1.63
2018-05-16T17:37:15.328Z,1.30
2018-05-16T17:39:42.873Z,1.50
2018-05-16T17:42:10.445Z,1.40
2018-05-16T17:44:38.020Z,1.37
2018-05-16T17:47:05.652Z,1.70
2018-05-16T17:49:33.144Z,1.60
2018-05-16T17:52:00.873Z,1.50
2018-05-16T17:54:28.433Z,1.63
2018-05-16T17:56:55.983Z,1.67
2018-05-16T17:59:23.570Z,1.70
2018-05-16T18:01:51.129Z,1.77
2018-05-16T18:04:20.249Z,1.60
2018-05-16T18:06:47.972Z,1.80
2018-05-16T18:09:15.525Z,1.87
2018-05-16T18:11:43.080Z,1.23
2018-05-16T18:17:35.236Z,1.40
2018-05-16T18:20:02.813Z,1.43
2018-05-16T18:22:30.360Z,1.90
2018-05-16T18:24:57.905Z,2.43
2018-05-16T18:27:25.484Z,1.73
2018-05-16T18:29:53.033Z,1.87
2018-05-16T18:32:20.576Z,1.53
2018-05-16T18:34:48.210Z,1.50
2018-05-16T18:37:15.771Z,1.63
2018-05-16T18:39:43.377Z,1.73
2018-05-16T18:42:10.893Z,1.30
2018-05-16T18:44:38.443Z,2.17
2018-05-16T18:47:06.025Z,2.20
2018-05-16T18:49:33.601Z,2.33
2018-05-16T18:52:01.143Z,1.90
2018-05-16T18:54:29.051Z,2.00
2018-05-16T18:56:56.640Z,2.13
2018-05-16T18:59:24.245Z,2.10
2018-05-16T19:01:51.978Z,2.07
2018-05-16T19:04:19.512Z,2.03
2018-05-16T19:06:47.051Z,2.10
2018-05-16T19:09:14.795Z,2.10
2018-05-16T19:11:42.333Z,2.10
2018-05-16T19:14:09.869Z,2.23
2018-05-16T19:16:37.447Z,2.10
2018-05-16T19:19:05.053Z,2.20
2018-05-16T19:21:32.606Z,2.47
2018-05-16T19:24:00.504Z,2.33
2018-05-16T19:26:29.040Z,2.40
2018-05-16T19:28:56.531Z,2.20
2018-05-16T19:31:24.215Z,2.30
2018-05-16T19:33:51.758Z,2.60
2018-05-16T19:36:19.305Z,2.27
2018-05-16T19:38:46.879Z,2.50
2018-05-16T19:41:14.441Z,2.73
2018-05-16T19:43:41.997Z,1.90
2018-05-16T19:46:10.014Z,2.20
2018-05-16T19:48:37.532Z,7.13
2018-05-16T19:51:05.186Z,5.23
2018-05-16T19:53:32.862Z,11.10
2018-05-16T19:56:00.416Z,3.47
2018-05-16T19:58:28.038Z,2.70
2018-05-16T20:00:55.746Z,2.40
2018-05-16T20:03:23.336Z,2.43
2018-05-16T20:05:50.894Z,2.97
2018-05-16T20:08:18.589Z,2.50
2018-05-16T20:10:46.144Z,2.63
2018-05-16T20:13:13.691Z,2.57
2018-05-16T20:15:41.261Z,2.43
2018-05-16T20:18:08.834Z,3.40
2018-05-16T20:20:36.379Z,2.53
2018-05-16T20:23:03.952Z,2.57
2018-05-16T20:25:31.489Z,2.97
2018-05-16T20:27:59.041Z,2.60
2018-05-16T20:30:26.769Z,2.87
2018-05-16T20:32:54.314Z,2.87
2018-05-16T20:35:21.858Z,3.00
2018-05-16T20:37:49.552Z,2.87
2018-05-16T20:40:17.092Z,3.77
2018-05-16T20:42:44.640Z,3.80
2018-05-16T20:45:12.534Z,3.20
2018-05-16T20:47:40.093Z,3.37
2018-05-16T20:50:07.648Z,3.73
2018-05-16T20:52:35.223Z,2.87
2018-05-16T20:55:02.775Z,2.97
2018-05-16T20:57:30.321Z,3.10
2018-05-16T20:59:57.909Z,3.60
2018-05-16T21:02:25.465Z,3.20
2018-05-16T21:04:53.046Z,3.17
2018-05-16T21:07:20.734Z,3.47
2018-05-16T21:09:48.272Z,3.20
2018-05-16T21:12:15.864Z,3.60
2018-05-16T21:14:43.451Z,4.47
2018-05-16T21:17:10.992Z,3.83
2018-05-16T21:19:38.561Z,4.20
2018-05-16T21:22:06.461Z,5.17
2018-05-16T21:24:34.003Z,3.73
2018-05-16T21:27:01.556Z,3.87
2018-05-16T21:29:29.171Z,3.37
2018-05-16T21:31:56.717Z,3.90
2018-05-16T21:34:24.258Z,4.20
2018-05-16T21:36:52.180Z,3.73
2018-05-16T21:39:19.763Z,3.80
2018-05-16T21:41:47.305Z,3.77
2018-05-16T21:44:15.253Z,3.53
2018-05-16T21:46:42.794Z,3.70
2018-05-16T21:49:10.353Z,3.73
2018-05-16T21:51:37.939Z,3.53
2018-05-16T21:54:05.479Z,3.40
2018-05-16T21:56:33.047Z,3.60
2018-05-16T21:59:00.917Z,3.73
2018-05-16T22:01:28.471Z,4.77
2018-05-16T22:03:56.020Z,3.60
2018-05-16T22:06:23.733Z,3.90
2018-05-16T22:08:51.270Z,3.83
2018-05-16T22:11:18.829Z,3.80
2018-05-16T22:13:46.546Z,3.73
2018-05-16T22:16:14.095Z,4.17
2018-05-16T22:18:41.679Z,4.43
2018-05-16T22:21:09.567Z,3.60
2018-05-16T22:23:37.098Z,4.03
2018-05-16T22:26:04.660Z,3.03
2018-05-16T22:28:32.221Z,3.20
2018-05-16T22:31:05.143Z,3.60
2018-05-16T22:33:38.286Z,4.00
2018-05-16T22:36:11.455Z,3.60
2018-05-16T22:38:44.691Z,3.67
2018-05-16T22:41:17.783Z,3.33
2018-05-16T22:46:51.552Z,3.57
2018-05-16T22:49:19.265Z,3.30
2018-05-16T22:51:46.802Z,3.77
2018-05-16T22:54:14.365Z,3.73
2018-05-16T22:56:41.941Z,3.97
2018-05-16T22:59:09.475Z,4.37
2018-05-16T23:01:37.033Z,3.87
2018-05-16T23:04:04.742Z,3.50
2018-05-16T23:06:32.314Z,3.67
2018-05-16T23:08:59.853Z,4.30
2018-05-16T23:11:27.436Z,4.33
2018-05-16T23:13:54.984Z,4.03
2018-05-16T23:16:22.530Z,4.40
2018-05-16T23:18:50.244Z,3.90
2018-05-16T23:21:17.798Z,4.30
2018-05-16T23:23:45.362Z,4.27
2018-05-16T23:26:12.927Z,4.23
2018-05-16T23:28:40.465Z,4.60
2018-05-16T23:31:08.009Z,4.17
2018-05-16T23:33:35.573Z,4.33
2018-05-16T23:36:03.117Z,4.07
2018-05-16T23:38:30.656Z,4.47
2018-05-16T23:40:58.220Z,3.93
2018-05-16T23:43:25.790Z,4.20
2018-05-16T23:45:53.373Z,4.53
2018-05-16T23:48:21.052Z,3.90
2018-05-16T23:50:48.609Z,3.77
2018-05-16T23:53:16.163Z,4.30
2018-05-16T23:55:43.736Z,4.20
2018-05-16T23:58:11.271Z,4.00
